sensor_id;sensor_type;location;lat;lon;timestamp;P1;durP1;ratioP1;P2;durP2;ratioP2
18102;SDS011;9178;51.120;6.192;2023-04-03T00:00:51;4.30;;;3.20;;
18102;SDS011;9178;51.120;6.192;2023-04-03T00:03:18;4.33;;;2.90;;
18102;SDS011;9178;51.120;6.192;2023-04-03T00:05:46;4.17;;;2.90;;
18102;SDS011;9178;51.120;6.192;2023-04-03T00:08:13;7.27;;;3.10;;
18102;SDS011;9178;51.120;6.192;2023-04-03T00:10:40;3.37;;;3.07;;
18102;SDS011;9178;51.120;6.192;2023-04-03T00:13:08;4.47;;;2.90;;
18102;SDS011;9178;51.120;6.192;2023-04-03T00:15:37;4.63;;;3.30;;
18102;SDS011;9178;51.120;6.192;2023-04-03T00:18:04;3.93;;;3.17;;
18102;SDS011;9178;51.120;6.192;2023-04-03T00:20:34;4.57;;;3.07;;
18102;SDS011;9178;51.120;6.192;2023-04-03T00:23:01;3.67;;;3.03;;
18102;SDS011;9178;51.120;6.192;2023-04-03T00:25:29;4.40;;;3.33;;
18102;SDS011;9178;51.120;6.192;2023-04-03T00:27:55;4.73;;;3.50;;
18102;SDS011;9178;51.120;6.192;2023-04-03T00:30:22;3.93;;;3.53;;
18102;SDS011;9178;51.120;6.192;2023-04-03T00:32:51;5.57;;;3.43;;
18102;SDS011;9178;51.120;6.192;2023-04-03T00:35:19;5.83;;;3.70;;
18102;SDS011;9178;51.120;6.192;2023-04-03T00:37:47;8.30;;;5.00;;
18102;SDS011;9178;51.120;6.192;2023-04-03T00:40:15;8.33;;;5.30;;
18102;SDS011;9178;51.120;6.192;2023-04-03T00:42:42;13.00;;;7.87;;
18102;SDS011;9178;51.120;6.192;2023-04-03T00:45:24;10.53;;;6.73;;
18102;SDS011;9178;51.120;6.192;2023-04-03T00:48:03;7.73;;;5.70;;
18102;SDS011;9178;51.120;6.192;2023-04-03T00:50:33;7.80;;;5.07;;
18102;SDS011;9178;51.120;6.192;2023-04-03T00:53:03;7.53;;;5.13;;
18102;SDS011;9178;51.120;6.192;2023-04-03T00:55:31;8.43;;;5.50;;
18102;SDS011;9178;51.120;6.192;2023-04-03T00:57:58;8.03;;;5.03;;
18102;SDS011;9178;51.120;6.192;2023-04-03T01:00:26;5.80;;;4.80;;
18102;SDS011;9178;51.120;6.192;2023-04-03T01:02:53;6.80;;;4.53;;
18102;SDS011;9178;51.120;6.192;2023-04-03T01:05:21;6.80;;;4.80;;
18102;SDS011;9178;51.120;6.192;2023-04-03T01:07:48;6.07;;;4.63;;
18102;SDS011;9178;51.120;6.192;2023-04-03T01:10:17;7.03;;;5.03;;
18102;SDS011;9178;51.120;6.192;2023-04-03T01:12:46;8.17;;;5.23;;
18102;SDS011;9178;51.120;6.192;2023-04-03T01:15:16;6.53;;;4.53;;
18102;SDS011;9178;51.120;6.192;2023-04-03T01:17:45;5.83;;;4.60;;
18102;SDS011;9178;51.120;6.192;2023-04-03T01:20:39;5.37;;;4.43;;
18102;SDS011;9178;51.120;6.192;2023-04-03T01:23:47;4.50;;;4.07;;
18102;SDS011;9178;51.120;6.192;2023-04-03T01:26:33;6.90;;;4.10;;
18102;SDS011;9178;51.120;6.192;2023-04-03T01:29:00;6.53;;;4.30;;
18102;SDS011;9178;51.120;6.192;2023-04-03T01:31:28;7.67;;;4.60;;
18102;SDS011;9178;51.120;6.192;2023-04-03T01:34:06;6.63;;;4.93;;
18102;SDS011;9178;51.120;6.192;2023-04-03T01:36:32;4.93;;;3.83;;
18102;SDS011;9178;51.120;6.192;2023-04-03T01:38:59;5.80;;;4.60;;
18102;SDS011;9178;51.120;6.192;2023-04-03T01:41:26;6.30;;;4.30;;
18102;SDS011;9178;51.120;6.192;2023-04-03T01:43:54;5.43;;;4.00;;
18102;SDS011;9178;51.120;6.192;2023-04-03T01:46:21;4.30;;;3.90;;
18102;SDS011;9178;51.120;6.192;2023-04-03T01:48:49;7.20;;;4.63;;
18102;SDS011;9178;51.120;6.192;2023-04-03T01:51:16;17.17;;;13.73;;
18102;SDS011;9178;51.120;6.192;2023-04-03T01:53:46;16.67;;;13.13;;
18102;SDS011;9178;51.120;6.192;2023-04-03T01:56:13;14.03;;;10.03;;
18102;SDS011;9178;51.120;6.192;2023-04-03T01:58:40;20.40;;;15.67;;
18102;SDS011;9178;51.120;6.192;2023-04-03T02:01:10;10.50;;;9.40;;
18102;SDS011;9178;51.120;6.192;2023-04-03T02:03:37;7.57;;;6.30;;
18102;SDS011;9178;51.120;6.192;2023-04-03T02:06:05;6.90;;;5.77;;
18102;SDS011;9178;51.120;6.192;2023-04-03T02:08:32;5.43;;;4.60;;
18102;SDS011;9178;51.120;6.192;2023-04-03T02:10:59;6.07;;;4.93;;
18102;SDS011;9178;51.120;6.192;2023-04-03T02:13:26;5.37;;;4.53;;
18102;SDS011;9178;51.120;6.192;2023-04-03T02:15:53;5.47;;;4.33;;
18102;SDS011;9178;51.120;6.192;2023-04-03T02:18:20;8.13;;;4.93;;
18102;SDS011;9178;51.120;6.192;2023-04-03T02:20:46;8.13;;;4.80;;
18102;SDS011;9178;51.120;6.192;2023-04-03T02:23:18;7.83;;;5.20;;
18102;SDS011;9178;51.120;6.192;2023-04-03T02:25:45;7.43;;;5.17;;
18102;SDS011;9178;51.120;6.192;2023-04-03T02:28:15;6.97;;;5.53;;
18102;SDS011;9178;51.120;6.192;2023-04-03T02:30:41;7.97;;;5.30;;
18102;SDS011;9178;51.120;6.192;2023-04-03T02:33:08;8.70;;;5.87;;
18102;SDS011;9178;51.120;6.192;2023-04-03T02:35:36;10.63;;;6.50;;
18102;SDS011;9178;51.120;6.192;2023-04-03T02:38:02;6.87;;;5.77;;
18102;SDS011;9178;51.120;6.192;2023-04-03T02:40:34;7.50;;;5.27;;
18102;SDS011;9178;51.120;6.192;2023-04-03T02:43:02;7.57;;;5.90;;
18102;SDS011;9178;51.120;6.192;2023-04-03T02:45:29;6.43;;;5.73;;
18102;SDS011;9178;51.120;6.192;2023-04-03T02:47:56;8.17;;;5.40;;
18102;SDS011;9178;51.120;6.192;2023-04-03T02:50:23;6.60;;;5.80;;
18102;SDS011;9178;51.120;6.192;2023-04-03T02:53:13;7.67;;;5.77;;
18102;SDS011;9178;51.120;6.192;2023-04-03T02:55:40;6.83;;;6.00;;
18102;SDS011;9178;51.120;6.192;2023-04-03T02:58:07;9.73;;;6.10;;
18102;SDS011;9178;51.120;6.192;2023-04-03T03:00:34;7.77;;;5.90;;
18102;SDS011;9178;51.120;6.192;2023-04-03T03:03:01;8.17;;;5.73;;
18102;SDS011;9178;51.120;6.192;2023-04-03T03:05:28;9.30;;;5.80;;
18102;SDS011;9178;51.120;6.192;2023-04-03T03:07:56;9.70;;;6.40;;
18102;SDS011;9178;51.120;6.192;2023-04-03T03:10:24;9.03;;;6.53;;
18102;SDS011;9178;51.120;6.192;2023-04-03T03:12:51;9.60;;;7.03;;
18102;SDS011;9178;51.120;6.192;2023-04-03T03:15:18;10.30;;;6.10;;
18102;SDS011;9178;51.120;6.192;2023-04-03T03:17:45;8.07;;;6.70;;
18102;SDS011;9178;51.120;6.192;2023-04-03T03:20:12;9.07;;;6.50;;
18102;SDS011;9178;51.120;6.192;2023-04-03T03:22:40;9.30;;;7.00;;
18102;SDS011;9178;51.120;6.192;2023-04-03T03:25:07;9.87;;;6.93;;
18102;SDS011;9178;51.120;6.192;2023-04-03T03:27:36;9.33;;;7.00;;
18102;SDS011;9178;51.120;6.192;2023-04-03T03:30:03;9.90;;;7.23;;
18102;SDS011;9178;51.120;6.192;2023-04-03T03:32:31;8.53;;;6.57;;
18102;SDS011;9178;51.120;6.192;2023-04-03T03:34:57;10.20;;;6.57;;
18102;SDS011;9178;51.120;6.192;2023-04-03T03:37:24;9.90;;;7.00;;
18102;SDS011;9178;51.120;6.192;2023-04-03T03:39:52;12.10;;;7.20;;
18102;SDS011;9178;51.120;6.192;2023-04-03T03:42:18;11.53;;;7.00;;
18102;SDS011;9178;51.120;6.192;2023-04-03T03:44:47;10.33;;;7.47;;
18102;SDS011;9178;51.120;6.192;2023-04-03T03:47:13;9.33;;;6.63;;
18102;SDS011;9178;51.120;6.192;2023-04-03T03:49:43;9.03;;;7.23;;
18102;SDS011;9178;51.120;6.192;2023-04-03T03:52:09;10.67;;;6.73;;
18102;SDS011;9178;51.120;6.192;2023-04-03T03:54:36;9.53;;;6.90;;
18102;SDS011;9178;51.120;6.192;2023-04-03T03:57:04;8.67;;;6.80;;
18102;SDS011;9178;51.120;6.192;2023-04-03T03:59:31;7.93;;;7.10;;
18102;SDS011;9178;51.120;6.192;2023-04-03T04:01:59;8.53;;;6.50;;
18102;SDS011;9178;51.120;6.192;2023-04-03T04:04:26;8.47;;;6.40;;
18102;SDS011;9178;51.120;6.192;2023-04-03T04:06:52;9.97;;;6.50;;
18102;SDS011;9178;51.120;6.192;2023-04-03T04:09:19;9.37;;;6.90;;
18102;SDS011;9178;51.120;6.192;2023-04-03T04:11:46;9.13;;;6.37;;
18102;SDS011;9178;51.120;6.192;2023-04-03T04:14:13;7.77;;;6.27;;
18102;SDS011;9178;51.120;6.192;2023-04-03T04:16:40;10.83;;;6.67;;
18102;SDS011;9178;51.120;6.192;2023-04-03T04:19:08;8.93;;;6.23;;
18102;SDS011;9178;51.120;6.192;2023-04-03T04:21:35;7.83;;;5.63;;
18102;SDS011;9178;51.120;6.192;2023-04-03T04:24:02;12.07;;;5.67;;
18102;SDS011;9178;51.120;6.192;2023-04-03T04:26:29;10.90;;;5.87;;
18102;SDS011;9178;51.120;6.192;2023-04-03T04:28:56;10.37;;;5.90;;
18102;SDS011;9178;51.120;6.192;2023-04-03T04:31:23;7.83;;;5.50;;
18102;SDS011;9178;51.120;6.192;2023-04-03T04:33:50;7.67;;;5.03;;
18102;SDS011;9178;51.120;6.192;2023-04-03T04:36:18;10.47;;;5.10;;
18102;SDS011;9178;51.120;6.192;2023-04-03T04:38:45;9.10;;;5.27;;
18102;SDS011;9178;51.120;6.192;2023-04-03T04:41:12;7.73;;;4.70;;
18102;SDS011;9178;51.120;6.192;2023-04-03T04:43:39;8.90;;;5.23;;
18102;SDS011;9178;51.120;6.192;2023-04-03T04:46:06;9.13;;;4.47;;
18102;SDS011;9178;51.120;6.192;2023-04-03T04:48:36;7.87;;;5.10;;
18102;SDS011;9178;51.120;6.192;2023-04-03T04:51:04;9.07;;;4.60;;
18102;SDS011;9178;51.120;6.192;2023-04-03T04:53:32;6.60;;;4.53;;
18102;SDS011;9178;51.120;6.192;2023-04-03T04:55:59;6.13;;;4.10;;
18102;SDS011;9178;51.120;6.192;2023-04-03T04:58:26;6.40;;;4.63;;
18102;SDS011;9178;51.120;6.192;2023-04-03T05:00:57;5.77;;;4.10;;
18102;SDS011;9178;51.120;6.192;2023-04-03T05:03:25;5.53;;;4.23;;
18102;SDS011;9178;51.120;6.192;2023-04-03T05:05:52;5.37;;;4.17;;
18102;SDS011;9178;51.120;6.192;2023-04-03T05:08:19;6.37;;;3.60;;
18102;SDS011;9178;51.120;6.192;2023-04-03T05:10:47;6.33;;;3.77;;
18102;SDS011;9178;51.120;6.192;2023-04-03T05:13:14;6.93;;;3.70;;
18102;SDS011;9178;51.120;6.192;2023-04-03T05:15:41;4.20;;;3.43;;
18102;SDS011;9178;51.120;6.192;2023-04-03T05:18:08;5.20;;;3.30;;
18102;SDS011;9178;51.120;6.192;2023-04-03T05:20:35;8.17;;;3.27;;
18102;SDS011;9178;51.120;6.192;2023-04-03T05:23:03;4.73;;;3.03;;
18102;SDS011;9178;51.120;6.192;2023-04-03T05:25:30;6.17;;;3.00;;
18102;SDS011;9178;51.120;6.192;2023-04-03T05:27:58;6.67;;;3.00;;
18102;SDS011;9178;51.120;6.192;2023-04-03T05:30:25;5.77;;;3.10;;
18102;SDS011;9178;51.120;6.192;2023-04-03T05:32:52;7.70;;;3.37;;
18102;SDS011;9178;51.120;6.192;2023-04-03T05:35:18;3.83;;;2.77;;
18102;SDS011;9178;51.120;6.192;2023-04-03T05:37:45;5.50;;;2.67;;
18102;SDS011;9178;51.120;6.192;2023-04-03T05:40:12;6.13;;;3.10;;
18102;SDS011;9178;51.120;6.192;2023-04-03T05:42:39;3.77;;;2.70;;
18102;SDS011;9178;51.120;6.192;2023-04-03T05:45:07;4.07;;;2.27;;
18102;SDS011;9178;51.120;6.192;2023-04-03T05:47:35;6.73;;;2.40;;
18102;SDS011;9178;51.120;6.192;2023-04-03T05:50:02;2.47;;;2.10;;
18102;SDS011;9178;51.120;6.192;2023-04-03T05:52:30;3.33;;;2.33;;
18102;SDS011;9178;51.120;6.192;2023-04-03T05:55:00;4.80;;;2.60;;
18102;SDS011;9178;51.120;6.192;2023-04-03T05:57:27;4.13;;;2.20;;
18102;SDS011;9178;51.120;6.192;2023-04-03T05:59:54;6.97;;;2.50;;
18102;SDS011;9178;51.120;6.192;2023-04-03T06:02:23;4.70;;;2.60;;
18102;SDS011;9178;51.120;6.192;2023-04-03T06:04:51;3.53;;;2.17;;
18102;SDS011;9178;51.120;6.192;2023-04-03T06:07:18;7.17;;;2.87;;
18102;SDS011;9178;51.120;6.192;2023-04-03T06:09:49;4.23;;;2.23;;
18102;SDS011;9178;51.120;6.192;2023-04-03T06:12:16;3.83;;;2.33;;
18102;SDS011;9178;51.120;6.192;2023-04-03T06:14:43;6.03;;;2.20;;
18102;SDS011;9178;51.120;6.192;2023-04-03T06:17:10;4.47;;;2.30;;
18102;SDS011;9178;51.120;6.192;2023-04-03T06:19:39;4.13;;;2.40;;
18102;SDS011;9178;51.120;6.192;2023-04-03T06:22:06;4.43;;;2.40;;
18102;SDS011;9178;51.120;6.192;2023-04-03T06:24:33;5.27;;;2.37;;
18102;SDS011;9178;51.120;6.192;2023-04-03T06:27:00;4.57;;;2.47;;
18102;SDS011;9178;51.120;6.192;2023-04-03T06:29:27;2.97;;;2.13;;
18102;SDS011;9178;51.120;6.192;2023-04-03T06:31:54;3.87;;;2.30;;
18102;SDS011;9178;51.120;6.192;2023-04-03T06:34:21;3.73;;;2.40;;
18102;SDS011;9178;51.120;6.192;2023-04-03T06:36:49;3.77;;;2.13;;
18102;SDS011;9178;51.120;6.192;2023-04-03T06:39:17;5.67;;;2.27;;
18102;SDS011;9178;51.120;6.192;2023-04-03T06:41:46;6.27;;;2.07;;
18102;SDS011;9178;51.120;6.192;2023-04-03T06:44:12;6.17;;;2.13;;
18102;SDS011;9178;51.120;6.192;2023-04-03T06:46:41;5.13;;;2.17;;
18102;SDS011;9178;51.120;6.192;2023-04-03T06:49:09;3.43;;;2.10;;
18102;SDS011;9178;51.120;6.192;2023-04-03T06:51:36;2.83;;;1.90;;
18102;SDS011;9178;51.120;6.192;2023-04-03T06:54:07;3.83;;;2.20;;
18102;SDS011;9178;51.120;6.192;2023-04-03T06:56:34;4.93;;;1.97;;
18102;SDS011;9178;51.120;6.192;2023-04-03T06:59:01;4.83;;;1.80;;
18102;SDS011;9178;51.120;6.192;2023-04-03T07:01:28;4.33;;;2.40;;
18102;SDS011;9178;51.120;6.192;2023-04-03T07:03:56;5.50;;;2.93;;
18102;SDS011;9178;51.120;6.192;2023-04-03T07:06:24;3.53;;;2.30;;
18102;SDS011;9178;51.120;6.192;2023-04-03T07:08:52;4.10;;;2.00;;
18102;SDS011;9178;51.120;6.192;2023-04-03T07:11:20;3.90;;;2.20;;
18102;SDS011;9178;51.120;6.192;2023-04-03T07:13:47;7.67;;;2.37;;
18102;SDS011;9178;51.120;6.192;2023-04-03T07:16:14;2.77;;;2.20;;
18102;SDS011;9178;51.120;6.192;2023-04-03T07:18:41;3.50;;;2.13;;
18102;SDS011;9178;51.120;6.192;2023-04-03T07:21:08;3.87;;;1.90;;
18102;SDS011;9178;51.120;6.192;2023-04-03T07:23:35;4.67;;;1.93;;
18102;SDS011;9178;51.120;6.192;2023-04-03T07:26:03;3.63;;;1.77;;
18102;SDS011;9178;51.120;6.192;2023-04-03T07:28:34;1.87;;;1.60;;
18102;SDS011;9178;51.120;6.192;2023-04-03T07:31:02;4.60;;;1.80;;
18102;SDS011;9178;51.120;6.192;2023-04-03T07:33:31;3.53;;;1.67;;
18102;SDS011;9178;51.120;6.192;2023-04-03T07:35:58;4.97;;;1.80;;
18102;SDS011;9178;51.120;6.192;2023-04-03T07:38:27;3.57;;;1.73;;
18102;SDS011;9178;51.120;6.192;2023-04-03T07:40:54;4.07;;;1.87;;
18102;SDS011;9178;51.120;6.192;2023-04-03T07:43:21;3.57;;;1.60;;
18102;SDS011;9178;51.120;6.192;2023-04-03T07:45:51;4.47;;;1.70;;
18102;SDS011;9178;51.120;6.192;2023-04-03T07:48:19;2.17;;;1.43;;
18102;SDS011;9178;51.120;6.192;2023-04-03T07:50:47;5.87;;;1.70;;
18102;SDS011;9178;51.120;6.192;2023-04-03T07:53:14;1.77;;;1.13;;
18102;SDS011;9178;51.120;6.192;2023-04-03T07:55:45;2.93;;;1.10;;
18102;SDS011;9178;51.120;6.192;2023-04-03T07:58:13;1.93;;;1.47;;
18102;SDS011;9178;51.120;6.192;2023-04-03T08:00:43;3.47;;;1.40;;
18102;SDS011;9178;51.120;6.192;2023-04-03T08:03:11;3.20;;;1.80;;
18102;SDS011;9178;51.120;6.192;2023-04-03T08:05:39;3.80;;;1.60;;
18102;SDS011;9178;51.120;6.192;2023-04-03T08:08:07;4.20;;;1.57;;
18102;SDS011;9178;51.120;6.192;2023-04-03T08:10:35;3.10;;;1.50;;
18102;SDS011;9178;51.120;6.192;2023-04-03T08:13:02;1.93;;;1.40;;
18102;SDS011;9178;51.120;6.192;2023-04-03T08:15:30;2.97;;;1.37;;
18102;SDS011;9178;51.120;6.192;2023-04-03T08:17:57;2.50;;;1.30;;
18102;SDS011;9178;51.120;6.192;2023-04-03T08:20:25;4.63;;;1.20;;
18102;SDS011;9178;51.120;6.192;2023-04-03T08:22:53;2.87;;;1.10;;
18102;SDS011;9178;51.120;6.192;2023-04-03T08:25:19;2.60;;;1.17;;
18102;SDS011;9178;51.120;6.192;2023-04-03T08:27:47;1.50;;;1.30;;
18102;SDS011;9178;51.120;6.192;2023-04-03T08:30:13;2.63;;;1.40;;
18102;SDS011;9178;51.120;6.192;2023-04-03T08:32:41;2.50;;;1.40;;
18102;SDS011;9178;51.120;6.192;2023-04-03T08:35:09;3.23;;;1.40;;
18102;SDS011;9178;51.120;6.192;2023-04-03T08:37:38;4.40;;;1.37;;
18102;SDS011;9178;51.120;6.192;2023-04-03T08:40:11;3.30;;;1.30;;
18102;SDS011;9178;51.120;6.192;2023-04-03T08:42:42;3.27;;;1.20;;
18102;SDS011;9178;51.120;6.192;2023-04-03T08:45:19;3.87;;;1.30;;
18102;SDS011;9178;51.120;6.192;2023-04-03T08:47:52;2.83;;;1.13;;
18102;SDS011;9178;51.120;6.192;2023-04-03T08:50:28;4.13;;;1.40;;
18102;SDS011;9178;51.120;6.192;2023-04-03T08:52:59;2.27;;;1.20;;
18102;SDS011;9178;51.120;6.192;2023-04-03T08:55:31;1.50;;;1.00;;
18102;SDS011;9178;51.120;6.192;2023-04-03T08:58:01;1.33;;;0.80;;
18102;SDS011;9178;51.120;6.192;2023-04-03T09:00:30;3.13;;;0.80;;
18102;SDS011;9178;51.120;6.192;2023-04-03T09:03:03;4.87;;;1.10;;
18102;SDS011;9178;51.120;6.192;2023-04-03T09:05:32;3.43;;;1.30;;
18102;SDS011;9178;51.120;6.192;2023-04-03T09:08:11;2.40;;;1.40;;
18102;SDS011;9178;51.120;6.192;2023-04-03T09:10:45;1.93;;;0.90;;
18102;SDS011;9178;51.120;6.192;2023-04-03T09:13:13;2.83;;;1.20;;
18102;SDS011;9178;51.120;6.192;2023-04-03T09:15:48;4.10;;;1.20;;
18102;SDS011;9178;51.120;6.192;2023-04-03T09:18:16;2.40;;;1.00;;
18102;SDS011;9178;51.120;6.192;2023-04-03T09:20:49;3.43;;;1.13;;
18102;SDS011;9178;51.120;6.192;2023-04-03T09:23:27;1.50;;;1.00;;
18102;SDS011;9178;51.120;6.192;2023-04-03T09:25:58;0.90;;;0.83;;
18102;SDS011;9178;51.120;6.192;2023-04-03T09:28:33;1.50;;;1.00;;
18102;SDS011;9178;51.120;6.192;2023-04-03T09:31:05;1.57;;;1.00;;
18102;SDS011;9178;51.120;6.192;2023-04-03T09:33:42;1.93;;;0.70;;
18102;SDS011;9178;51.120;6.192;2023-04-03T09:36:10;1.37;;;0.80;;
18102;SDS011;9178;51.120;6.192;2023-04-03T09:38:38;1.33;;;0.77;;
18102;SDS011;9178;51.120;6.192;2023-04-03T09:41:06;2.10;;;1.20;;
18102;SDS011;9178;51.120;6.192;2023-04-03T09:43:39;1.90;;;1.10;;
18102;SDS011;9178;51.120;6.192;2023-04-03T09:46:24;1.47;;;0.93;;
18102;SDS011;9178;51.120;6.192;2023-04-03T09:48:55;3.70;;;0.90;;
18102;SDS011;9178;51.120;6.192;2023-04-03T09:51:24;2.23;;;0.90;;
18102;SDS011;9178;51.120;6.192;2023-04-03T09:53:55;2.20;;;0.70;;
18102;SDS011;9178;51.120;6.192;2023-04-03T09:56:23;2.57;;;0.77;;
18102;SDS011;9178;51.120;6.192;2023-04-03T09:58:53;5.97;;;1.20;;
18102;SDS011;9178;51.120;6.192;2023-04-03T10:01:35;2.40;;;0.87;;
18102;SDS011;9178;51.120;6.192;2023-04-03T10:04:07;3.40;;;0.80;;
18102;SDS011;9178;51.120;6.192;2023-04-03T10:06:39;3.37;;;0.90;;
18102;SDS011;9178;51.120;6.192;2023-04-03T10:09:23;1.33;;;0.80;;
18102;SDS011;9178;51.120;6.192;2023-04-03T10:11:58;0.83;;;0.80;;
18102;SDS011;9178;51.120;6.192;2023-04-03T10:14:27;2.60;;;0.90;;
18102;SDS011;9178;51.120;6.192;2023-04-03T10:16:57;1.27;;;0.90;;
18102;SDS011;9178;51.120;6.192;2023-04-03T10:19:33;1.60;;;0.80;;
18102;SDS011;9178;51.120;6.192;2023-04-03T10:22:06;1.97;;;0.70;;
18102;SDS011;9178;51.120;6.192;2023-04-03T10:24:48;2.23;;;0.80;;
18102;SDS011;9178;51.120;6.192;2023-04-03T10:27:22;3.23;;;0.83;;
18102;SDS011;9178;51.120;6.192;2023-04-03T10:29:59;1.07;;;0.60;;
18102;SDS011;9178;51.120;6.192;2023-04-03T10:32:41;2.30;;;0.80;;
18102;SDS011;9178;51.120;6.192;2023-04-03T10:35:16;3.10;;;0.80;;
18102;SDS011;9178;51.120;6.192;2023-04-03T10:37:52;1.40;;;0.73;;
18102;SDS011;9178;51.120;6.192;2023-04-03T10:40:30;1.57;;;1.03;;
18102;SDS011;9178;51.120;6.192;2023-04-03T10:43:02;1.73;;;0.83;;
18102;SDS011;9178;51.120;6.192;2023-04-03T10:45:42;2.73;;;0.90;;
18102;SDS011;9178;51.120;6.192;2023-04-03T10:48:18;1.53;;;0.70;;
18102;SDS011;9178;51.120;6.192;2023-04-03T10:51:05;3.47;;;1.57;;
18102;SDS011;9178;51.120;6.192;2023-04-03T10:53:44;1.50;;;0.83;;
18102;SDS011;9178;51.120;6.192;2023-04-03T10:56:18;2.57;;;1.00;;
18102;SDS011;9178;51.120;6.192;2023-04-03T10:58:52;2.23;;;0.93;;
18102;SDS011;9178;51.120;6.192;2023-04-03T11:01:24;1.87;;;0.87;;
18102;SDS011;9178;51.120;6.192;2023-04-03T11:03:58;1.93;;;0.97;;
18102;SDS011;9178;51.120;6.192;2023-04-03T11:06:27;2.87;;;0.93;;
18102;SDS011;9178;51.120;6.192;2023-04-03T11:09:03;1.70;;;0.93;;
18102;SDS011;9178;51.120;6.192;2023-04-03T11:11:41;5.47;;;0.97;;
18102;SDS011;9178;51.120;6.192;2023-04-03T11:14:09;4.10;;;1.73;;
18102;SDS011;9178;51.120;6.192;2023-04-03T11:16:42;2.37;;;1.03;;
18102;SDS011;9178;51.120;6.192;2023-04-03T11:19:14;1.70;;;0.97;;
18102;SDS011;9178;51.120;6.192;2023-04-03T11:21:50;1.93;;;1.03;;
18102;SDS011;9178;51.120;6.192;2023-04-03T11:24:25;2.80;;;1.00;;
18102;SDS011;9178;51.120;6.192;2023-04-03T11:26:55;1.80;;;1.20;;
18102;SDS011;9178;51.120;6.192;2023-04-03T11:29:26;4.63;;;1.03;;
18102;SDS011;9178;51.120;6.192;2023-04-03T11:32:02;2.10;;;1.03;;
18102;SDS011;9178;51.120;6.192;2023-04-03T11:34:36;1.75;;;0.85;;
18102;SDS011;9178;51.120;6.192;2023-04-03T11:37:11;2.00;;;0.88;;
18102;SDS011;9178;51.120;6.192;2023-04-03T11:39:45;1.30;;;0.73;;
18102;SDS011;9178;51.120;6.192;2023-04-03T11:42:23;2.08;;;1.30;;
18102;SDS011;9178;51.120;6.192;2023-04-03T11:47:43;1.30;;;1.00;;
18102;SDS011;9178;51.120;6.192;2023-04-03T11:50:18;1.27;;;1.10;;
18102;SDS011;9178;51.120;6.192;2023-04-03T11:52:59;1.13;;;0.82;;
18102;SDS011;9178;51.120;6.192;2023-04-03T11:55:51;1.58;;;0.93;;
18102;SDS011;9178;51.120;6.192;2023-04-03T11:58:34;2.58;;;1.00;;
18102;SDS011;9178;51.120;6.192;2023-04-03T12:01:05;2.88;;;1.10;;
18102;SDS011;9178;51.120;6.192;2023-04-03T12:06:42;2.33;;;1.05;;
18102;SDS011;9178;51.120;6.192;2023-04-03T12:09:35;1.45;;;1.00;;
18102;SDS011;9178;51.120;6.192;2023-04-03T12:12:28;4.15;;;1.50;;
18102;SDS011;9178;51.120;6.192;2023-04-03T12:15:20;2.35;;;1.08;;
18102;SDS011;9178;51.120;6.192;2023-04-03T12:21:08;2.15;;;0.82;;
18102;SDS011;9178;51.120;6.192;2023-04-03T12:23:36;2.13;;;0.90;;
18102;SDS011;9178;51.120;6.192;2023-04-03T12:26:28;2.65;;;0.95;;
18102;SDS011;9178;51.120;6.192;2023-04-03T12:29:02;2.20;;;1.00;;
18102;SDS011;9178;51.120;6.192;2023-04-03T12:31:46;1.53;;;0.90;;
18102;SDS011;9178;51.120;6.192;2023-04-03T12:34:27;3.40;;;1.30;;
18102;SDS011;9178;51.120;6.192;2023-04-03T12:37:24;2.87;;;1.03;;
18102;SDS011;9178;51.120;6.192;2023-04-03T12:40:07;2.50;;;1.10;;
18102;SDS011;9178;51.120;6.192;2023-04-03T12:43:09;1.60;;;1.10;;
18102;SDS011;9178;51.120;6.192;2023-04-03T12:46:04;1.97;;;1.10;;
18102;SDS011;9178;51.120;6.192;2023-04-03T12:48:47;3.03;;;1.10;;
18102;SDS011;9178;51.120;6.192;2023-04-03T12:51:17;1.00;;;0.90;;
18102;SDS011;9178;51.120;6.192;2023-04-03T12:53:46;3.53;;;1.27;;
18102;SDS011;9178;51.120;6.192;2023-04-03T12:56:21;1.00;;;0.90;;
18102;SDS011;9178;51.120;6.192;2023-04-03T12:58:50;2.60;;;1.03;;
18102;SDS011;9178;51.120;6.192;2023-04-03T13:01:20;1.97;;;1.10;;
18102;SDS011;9178;51.120;6.192;2023-04-03T13:03:52;2.10;;;0.70;;
18102;SDS011;9178;51.120;6.192;2023-04-03T13:06:21;3.17;;;1.10;;
18102;SDS011;9178;51.120;6.192;2023-04-03T13:08:50;1.07;;;0.80;;
18102;SDS011;9178;51.120;6.192;2023-04-03T13:11:18;2.50;;;0.90;;
18102;SDS011;9178;51.120;6.192;2023-04-03T13:13:54;1.60;;;0.83;;
18102;SDS011;9178;51.120;6.192;2023-04-03T13:16:22;2.03;;;0.90;;
18102;SDS011;9178;51.120;6.192;2023-04-03T13:18:51;0.60;;;0.60;;
18102;SDS011;9178;51.120;6.192;2023-04-03T13:21:19;2.13;;;0.90;;
18102;SDS011;9178;51.120;6.192;2023-04-03T13:23:50;1.63;;;0.60;;
18102;SDS011;9178;51.120;6.192;2023-04-03T13:26:20;0.73;;;0.70;;
18102;SDS011;9178;51.120;6.192;2023-04-03T13:28:51;1.45;;;0.60;;
18102;SDS011;9178;51.120;6.192;2023-04-03T13:31:19;6.03;;;0.77;;
18102;SDS011;9178;51.120;6.192;2023-04-03T13:33:56;1.50;;;0.80;;
18102;SDS011;9178;51.120;6.192;2023-04-03T13:36:29;2.33;;;1.05;;
18102;SDS011;9178;51.120;6.192;2023-04-03T13:38:59;1.92;;;0.90;;
18102;SDS011;9178;51.120;6.192;2023-04-03T13:41:31;2.03;;;1.00;;
18102;SDS011;9178;51.120;6.192;2023-04-03T13:44:16;1.00;;;0.68;;
18102;SDS011;9178;51.120;6.192;2023-04-03T13:46:54;3.08;;;0.75;;
18102;SDS011;9178;51.120;6.192;2023-04-03T13:49:27;2.88;;;1.00;;
18102;SDS011;9178;51.120;6.192;2023-04-03T13:51:57;1.92;;;0.80;;
18102;SDS011;9178;51.120;6.192;2023-04-03T13:54:28;0.63;;;0.50;;
18102;SDS011;9178;51.120;6.192;2023-04-03T13:57:11;1.75;;;0.70;;
18102;SDS011;9178;51.120;6.192;2023-04-03T13:59:40;1.38;;;0.77;;
18102;SDS011;9178;51.120;6.192;2023-04-03T14:02:15;2.78;;;0.90;;
18102;SDS011;9178;51.120;6.192;2023-04-03T14:04:49;2.58;;;0.90;;
18102;SDS011;9178;51.120;6.192;2023-04-03T14:07:21;1.40;;;0.70;;
18102;SDS011;9178;51.120;6.192;2023-04-03T14:09:48;1.83;;;0.73;;
18102;SDS011;9178;51.120;6.192;2023-04-03T14:12:17;1.92;;;0.80;;
18102;SDS011;9178;51.120;6.192;2023-04-03T14:14:47;2.72;;;0.60;;
18102;SDS011;9178;51.120;6.192;2023-04-03T14:17:15;1.35;;;0.90;;
18102;SDS011;9178;51.120;6.192;2023-04-03T14:19:44;1.73;;;0.70;;
18102;SDS011;9178;51.120;6.192;2023-04-03T14:22:15;0.85;;;0.75;;
18102;SDS011;9178;51.120;6.192;2023-04-03T14:24:44;0.95;;;0.60;;
18102;SDS011;9178;51.120;6.192;2023-04-03T14:27:15;2.75;;;0.90;;
18102;SDS011;9178;51.120;6.192;2023-04-03T14:29:44;1.05;;;0.70;;
18102;SDS011;9178;51.120;6.192;2023-04-03T14:32:12;1.17;;;0.68;;
18102;SDS011;9178;51.120;6.192;2023-04-03T14:34:39;2.03;;;0.80;;
18102;SDS011;9178;51.120;6.192;2023-04-03T14:37:09;2.92;;;0.85;;
18102;SDS011;9178;51.120;6.192;2023-04-03T14:39:38;1.67;;;0.80;;
18102;SDS011;9178;51.120;6.192;2023-04-03T14:42:05;1.52;;;1.00;;
18102;SDS011;9178;51.120;6.192;2023-04-03T14:44:40;1.98;;;1.17;;
18102;SDS011;9178;51.120;6.192;2023-04-03T14:47:09;2.40;;;0.88;;
18102;SDS011;9178;51.120;6.192;2023-04-03T14:49:37;0.93;;;0.80;;
18102;SDS011;9178;51.120;6.192;2023-04-03T14:52:03;1.77;;;0.80;;
18102;SDS011;9178;51.120;6.192;2023-04-03T14:54:30;1.02;;;0.73;;
18102;SDS011;9178;51.120;6.192;2023-04-03T14:57:05;1.15;;;0.80;;
18102;SDS011;9178;51.120;6.192;2023-04-03T14:59:37;0.65;;;0.65;;
18102;SDS011;9178;51.120;6.192;2023-04-03T15:02:08;1.48;;;0.75;;
18102;SDS011;9178;51.120;6.192;2023-04-03T15:04:50;1.27;;;0.90;;
18102;SDS011;9178;51.120;6.192;2023-04-03T15:07:16;1.13;;;0.70;;
18102;SDS011;9178;51.120;6.192;2023-04-03T15:09:43;1.38;;;0.68;;
18102;SDS011;9178;51.120;6.192;2023-04-03T15:12:12;1.17;;;0.90;;
18102;SDS011;9178;51.120;6.192;2023-04-03T15:14:39;1.57;;;0.70;;
18102;SDS011;9178;51.120;6.192;2023-04-03T15:17:06;2.27;;;1.10;;
18102;SDS011;9178;51.120;6.192;2023-04-03T15:19:39;2.57;;;0.93;;
18102;SDS011;9178;51.120;6.192;2023-04-03T15:22:08;2.83;;;1.10;;
18102;SDS011;9178;51.120;6.192;2023-04-03T15:24:41;2.87;;;1.00;;
18102;SDS011;9178;51.120;6.192;2023-04-03T15:27:09;1.30;;;0.73;;
18102;SDS011;9178;51.120;6.192;2023-04-03T15:29:38;2.07;;;0.80;;